createdAt,value
2022-10-31T00:01:34.749Z,100615.00
2022-10-31T00:04:01.952Z,100597.00
2022-10-31T00:06:29.637Z,100611.00
2022-10-31T00:09:03.425Z,100619.00
2022-10-31T00:11:31.254Z,100618.00
2022-10-31T00:14:00.275Z,100620.00
2022-10-31T00:16:29.428Z,100613.00
2022-10-31T00:19:01.288Z,100622.00
2022-10-31T00:21:29.299Z,100627.00
2022-10-31T00:23:56.267Z,100610.00
2022-10-31T00:26:23.189Z,100631.00
2022-10-31T00:28:50.419Z,100632.00
2022-10-31T00:31:17.844Z,100632.00
2022-10-31T00:33:45.063Z,100630.00
2022-10-31T00:36:16.032Z,100632.00
2022-10-31T00:38:44.271Z,100635.00
2022-10-31T00:41:12.915Z,100634.00
2022-10-31T00:43:39.847Z,100634.00
2022-10-31T00:46:06.854Z,100629.00
2022-10-31T00:48:33.956Z,100632.00
2022-10-31T00:51:00.897Z,100635.00
2022-10-31T00:53:27.878Z,100635.00
2022-10-31T00:55:54.781Z,100636.00
2022-10-31T00:58:21.985Z,100632.00
2022-10-31T01:00:56.355Z,100630.00
2022-10-31T01:03:30.759Z,100637.00
2022-10-31T01:06:07.689Z,100628.00
2022-10-31T01:08:37.347Z,100620.00
2022-10-31T01:11:12.928Z,100632.00
2022-10-31T01:13:41.493Z,100631.00
2022-10-31T01:16:12.143Z,100621.00
2022-10-31T01:18:39.661Z,100635.00
2022-10-31T01:21:14.290Z,100634.00
2022-10-31T01:23:41.414Z,100640.00
2022-10-31T01:26:37.591Z,100638.00
2022-10-31T01:29:08.822Z,100643.00
2022-10-31T01:31:39.844Z,100642.00
2022-10-31T01:34:07.801Z,100637.00
2022-10-31T01:36:38.646Z,100645.00
2022-10-31T01:39:15.453Z,100642.00
2022-10-31T01:41:50.550Z,100639.00
2022-10-31T01:44:17.437Z,100637.00
2022-10-31T01:46:55.198Z,100642.00
2022-10-31T01:49:36.680Z,100637.00
2022-10-31T01:52:19.499Z,100633.00
2022-10-31T01:54:55.017Z,100642.00
2022-10-31T01:57:23.246Z,100617.00
2022-10-31T01:59:57.557Z,100640.00
2022-10-31T02:02:26.281Z,100646.00
2022-10-31T02:04:54.499Z,100650.00
2022-10-31T02:07:55.248Z,100641.00
2022-10-31T02:10:24.402Z,100645.00
2022-10-31T02:12:56.394Z,100649.00
2022-10-31T02:15:23.943Z,100646.00
2022-10-31T02:17:51.068Z,100645.00
2022-10-31T02:20:23.080Z,100653.00
2022-10-31T02:23:16.483Z,100655.00
2022-10-31T02:26:20.824Z,100653.00
2022-10-31T02:29:32.291Z,100650.00
2022-10-31T02:32:15.155Z,100656.00
2022-10-31T02:35:19.353Z,100652.00
2022-10-31T02:37:52.742Z,100651.00
2022-10-31T02:41:11.218Z,100656.00
2022-10-31T02:44:13.959Z,100667.00
2022-10-31T02:46:54.199Z,100661.00
2022-10-31T02:49:54.645Z,100656.00
2022-10-31T02:52:31.382Z,100661.00
2022-10-31T02:54:58.842Z,100662.00
2022-10-31T02:57:30.890Z,100659.00
2022-10-31T03:00:07.388Z,100670.00
2022-10-31T03:03:11.846Z,100655.00
2022-10-31T03:05:50.023Z,100668.00
2022-10-31T03:08:30.112Z,100673.00
2022-10-31T03:11:04.477Z,100666.00
2022-10-31T03:13:54.926Z,100666.00
2022-10-31T03:16:51.483Z,100673.00
2022-10-31T03:19:35.841Z,100667.00
2022-10-31T03:22:22.272Z,100670.00
2022-10-31T03:24:51.009Z,100677.00
2022-10-31T03:27:25.400Z,100678.00
2022-10-31T03:29:57.692Z,100682.00
2022-10-31T03:32:42.519Z,100687.00
2022-10-31T03:35:12.433Z,100687.00
2022-10-31T03:37:42.796Z,100682.00
2022-10-31T03:40:14.146Z,100671.00
2022-10-31T03:42:49.649Z,100674.00
2022-10-31T03:45:27.428Z,100672.00
2022-10-31T03:47:56.220Z,100668.00
2022-10-31T03:50:29.194Z,100667.00
2022-10-31T03:53:10.707Z,100670.00
2022-10-31T03:55:50.217Z,100668.00
2022-10-31T03:58:28.148Z,100669.00
2022-10-31T04:00:58.658Z,100671.00
2022-10-31T04:03:32.821Z,100665.00
2022-10-31T04:06:06.748Z,100666.00
2022-10-31T04:08:41.566Z,100664.00
2022-10-31T04:11:13.045Z,100668.00
2022-10-31T04:13:43.666Z,100670.00
2022-10-31T04:16:15.968Z,100670.00
2022-10-31T04:18:45.061Z,100669.00
2022-10-31T04:21:11.982Z,100659.00
2022-10-31T04:23:38.942Z,100660.00
2022-10-31T04:26:05.981Z,100660.00
2022-10-31T04:28:34.683Z,100662.00
2022-10-31T04:31:01.853Z,100662.00
2022-10-31T04:33:28.893Z,100653.00
2022-10-31T04:35:55.770Z,100649.00
2022-10-31T04:38:22.696Z,100655.00
2022-10-31T04:40:49.628Z,100651.00
2022-10-31T04:43:16.603Z,100655.00
2022-10-31T04:45:43.596Z,100661.00
2022-10-31T04:48:10.487Z,100652.00
2022-10-31T04:50:37.441Z,100644.00
2022-10-31T04:53:04.439Z,100643.00
2022-10-31T04:55:31.592Z,100638.00
2022-10-31T04:57:59.234Z,100646.00
2022-10-31T05:00:26.525Z,100649.00
2022-10-31T05:02:56.902Z,100650.00
2022-10-31T05:05:27.920Z,100645.00
2022-10-31T05:07:56.003Z,100647.00
2022-10-31T05:10:27.345Z,100648.00
2022-10-31T05:13:00.934Z,100648.00
2022-10-31T05:15:29.486Z,100650.00
2022-10-31T05:17:57.355Z,100668.00
2022-10-31T05:20:29.671Z,100657.00
2022-10-31T05:22:58.539Z,100660.00
2022-10-31T05:25:29.203Z,100667.00
2022-10-31T05:27:57.964Z,100675.00
2022-10-31T05:30:31.688Z,100672.00
2022-10-31T05:32:59.381Z,100660.00
2022-10-31T05:35:30.959Z,100669.00
2022-10-31T05:37:58.864Z,100664.00
2022-10-31T05:40:27.134Z,100679.00
2022-10-31T05:42:56.864Z,100678.00
2022-10-31T05:45:24.495Z,100681.00
2022-10-31T05:47:57.850Z,100678.00
2022-10-31T05:50:27.353Z,100676.00
2022-10-31T05:53:12.286Z,100676.00
2022-10-31T05:55:40.468Z,100691.00
2022-10-31T05:58:07.578Z,100695.00
2022-10-31T06:00:36.060Z,100694.00
2022-10-31T06:03:06.837Z,100695.00
2022-10-31T06:05:34.162Z,100691.00
2022-10-31T06:08:01.795Z,100686.00
2022-10-31T06:10:29.504Z,100692.00
2022-10-31T06:12:56.558Z,100702.00
2022-10-31T06:15:24.843Z,100703.00
2022-10-31T06:18:06.735Z,100704.00
2022-10-31T06:20:34.967Z,100706.00
2022-10-31T06:23:02.844Z,100716.00
2022-10-31T06:25:30.247Z,100694.00
2022-10-31T06:27:57.998Z,100696.00
2022-10-31T06:30:25.631Z,100694.00
2022-10-31T06:32:52.851Z,100699.00
2022-10-31T06:35:20.572Z,100705.00
2022-10-31T06:37:55.040Z,100705.00
2022-10-31T06:40:22.337Z,100710.00
2022-10-31T06:42:58.125Z,100710.00
2022-10-31T06:45:25.118Z,100708.00
2022-10-31T06:48:16.479Z,100708.00
2022-10-31T06:50:43.903Z,100706.00
2022-10-31T06:55:43.250Z,100699.00
2022-10-31T06:58:12.082Z,100691.00
2022-10-31T07:00:39.051Z,100715.00
2022-10-31T07:03:13.333Z,100714.00
2022-10-31T07:05:41.263Z,100706.00
2022-10-31T07:08:12.500Z,100711.00
2022-10-31T07:10:41.591Z,100717.00
2022-10-31T07:13:14.163Z,100722.00
2022-10-31T07:15:43.843Z,100728.00
2022-10-31T07:18:13.460Z,100735.00
2022-10-31T07:20:40.491Z,100742.00
2022-10-31T07:23:07.440Z,100742.00
2022-10-31T07:25:34.628Z,100744.00
2022-10-31T07:28:02.112Z,100741.00
2022-10-31T07:30:29.303Z,100734.00
2022-10-31T07:32:56.530Z,100742.00
2022-10-31T07:35:27.628Z,100744.00
2022-10-31T07:37:58.861Z,100747.00
2022-10-31T07:40:26.364Z,100758.00
2022-10-31T07:42:54.840Z,100757.00
2022-10-31T07:45:22.395Z,100752.00
2022-10-31T07:47:52.253Z,100756.00
2022-10-31T07:50:29.452Z,100764.00
2022-10-31T07:53:05.879Z,100751.00
2022-10-31T07:55:33.697Z,100745.00
2022-10-31T07:58:23.017Z,100752.00
2022-10-31T08:00:50.120Z,100752.00
2022-10-31T08:03:20.038Z,100750.00
2022-10-31T08:05:47.319Z,100758.00
2022-10-31T08:08:15.523Z,100760.00
2022-10-31T08:10:43.137Z,100760.00
2022-10-31T08:13:13.837Z,100764.00
2022-10-31T08:15:42.762Z,100761.00
2022-10-31T08:18:16.379Z,100761.00
2022-10-31T08:20:44.961Z,100757.00
2022-10-31T08:23:14.417Z,100767.00
2022-10-31T08:25:42.832Z,100746.00
2022-10-31T08:28:12.594Z,100749.00
2022-10-31T08:30:41.549Z,100760.00
2022-10-31T08:33:15.505Z,100756.00
2022-10-31T08:35:43.237Z,100758.00
2022-10-31T08:38:13.339Z,100751.00
2022-10-31T08:40:40.967Z,100760.00
2022-10-31T08:43:14.759Z,100755.00
2022-10-31T08:45:43.024Z,100761.00
2022-10-31T08:48:16.005Z,100764.00
2022-10-31T08:50:44.667Z,100766.00
2022-10-31T08:53:20.081Z,100772.00
2022-10-31T08:55:48.114Z,100770.00
2022-10-31T08:58:18.509Z,100765.00
2022-10-31T09:00:47.882Z,100771.00
2022-10-31T09:03:25.322Z,100771.00
2022-10-31T09:05:57.595Z,100775.00
2022-10-31T09:08:24.909Z,100769.00
2022-10-31T09:10:52.766Z,100765.00
2022-10-31T09:13:28.136Z,100779.00
2022-10-31T09:15:58.592Z,100774.00
2022-10-31T09:18:28.840Z,100771.00
2022-10-31T09:21:00.023Z,100783.00
2022-10-31T09:23:27.027Z,100777.00
2022-10-31T09:25:55.152Z,100764.00
2022-10-31T09:28:25.084Z,100762.00
2022-10-31T09:30:54.801Z,100771.00
2022-10-31T09:33:22.706Z,100766.00
2022-10-31T09:35:49.918Z,100773.00
2022-10-31T09:38:22.126Z,100772.00
2022-10-31T09:41:27.232Z,100773.00
2022-10-31T09:44:06.251Z,100778.00
2022-10-31T09:47:04.584Z,100796.00
2022-10-31T09:49:38.594Z,100786.00
2022-10-31T09:52:32.208Z,100787.00
2022-10-31T09:55:25.020Z,100785.00
2022-10-31T09:57:52.227Z,100783.00
2022-10-31T10:00:23.393Z,100780.00
2022-10-31T10:03:05.400Z,100778.00
2022-10-31T10:05:50.847Z,100786.00
2022-10-31T10:08:26.604Z,100787.00
2022-10-31T10:11:46.231Z,100782.00
2022-10-31T10:14:43.287Z,100784.00
2022-10-31T10:18:03.680Z,100777.00
2022-10-31T10:21:02.956Z,100775.00
2022-10-31T10:23:54.647Z,100771.00
2022-10-31T10:26:44.563Z,100776.00
2022-10-31T10:29:41.775Z,100769.00
2022-10-31T10:32:26.177Z,100767.00
2022-10-31T10:35:10.445Z,100771.00
2022-10-31T10:37:44.189Z,100761.00
2022-10-31T10:40:20.698Z,100768.00
2022-10-31T10:43:24.716Z,100767.00
2022-10-31T10:46:19.502Z,100765.00
2022-10-31T10:48:53.011Z,100762.00
2022-10-31T10:54:44.007Z,100755.00
2022-10-31T10:57:35.619Z,100766.00
2022-10-31T11:00:20.682Z,100763.00
2022-10-31T11:02:49.209Z,100769.00
2022-10-31T11:05:36.686Z,100764.00
2022-10-31T11:08:05.688Z,100765.00
2022-10-31T11:10:34.322Z,100768.00
2022-10-31T11:13:10.017Z,100762.00
2022-10-31T11:16:10.721Z,100771.00
2022-10-31T11:18:48.172Z,100770.00
2022-10-31T11:21:28.140Z,100773.00
2022-10-31T11:24:16.750Z,100759.00
2022-10-31T11:26:47.494Z,100769.00
2022-10-31T11:29:26.903Z,100768.00
2022-10-31T11:31:59.129Z,100759.00
2022-10-31T11:34:46.149Z,100759.00
2022-10-31T11:37:26.435Z,100774.00
2022-10-31T11:40:05.159Z,100769.00
2022-10-31T11:42:41.192Z,100771.00
2022-10-31T11:45:20.076Z,100775.00
2022-10-31T11:47:56.709Z,100770.00
2022-10-31T11:50:38.088Z,100752.00
2022-10-31T11:53:15.869Z,100760.00
2022-10-31T11:55:43.006Z,100762.00
2022-10-31T11:58:36.193Z,100762.00
2022-10-31T12:01:03.141Z,100761.00
2022-10-31T12:04:03.046Z,100765.00
2022-10-31T12:06:40.131Z,100765.00
2022-10-31T12:09:31.070Z,100764.00
2022-10-31T12:12:06.899Z,100763.00
2022-10-31T12:15:10.490Z,100764.00
2022-10-31T12:18:14.867Z,100767.00
2022-10-31T12:21:21.058Z,100768.00
2022-10-31T12:24:15.773Z,100760.00
2022-10-31T12:27:00.998Z,100767.00
2022-10-31T12:29:57.340Z,100762.00
2022-10-31T12:33:15.179Z,100758.00
2022-10-31T12:36:25.836Z,100757.00
2022-10-31T12:39:42.694Z,100748.00
2022-10-31T12:42:12.388Z,100746.00
2022-10-31T12:45:00.724Z,100749.00
2022-10-31T13:01:25.582Z,100752.00
2022-10-31T13:04:31.733Z,100696.00
2022-10-31T13:07:15.453Z,100750.00
2022-10-31T13:10:01.846Z,100741.00
2022-10-31T13:12:36.487Z,100743.00
2022-10-31T13:15:24.285Z,100741.00
2022-10-31T13:18:24.024Z,100672.00
2022-10-31T13:20:55.522Z,100742.00
2022-10-31T13:23:50.429Z,100749.00
2022-10-31T13:26:51.103Z,100747.00
2022-10-31T13:30:23.484Z,100739.00
2022-10-31T13:33:09.303Z,100739.00
2022-10-31T13:35:58.354Z,100730.00
2022-10-31T13:38:35.419Z,100733.00
2022-10-31T13:41:05.162Z,100734.00
2022-10-31T13:44:09.375Z,100731.00
2022-10-31T13:46:40.246Z,100739.00
2022-10-31T13:49:31.303Z,100741.00
2022-10-31T13:52:13.476Z,100747.00
2022-10-31T13:54:49.080Z,100737.00
2022-10-31T13:57:44.021Z,100743.00
2022-10-31T14:00:20.274Z,100731.00
2022-10-31T14:02:55.401Z,100729.00
2022-10-31T14:05:34.337Z,100738.00
2022-10-31T14:08:05.452Z,100745.00
2022-10-31T14:10:40.465Z,100744.00
2022-10-31T14:13:35.100Z,100745.00
2022-10-31T14:16:07.443Z,100739.00
2022-10-31T14:18:40.326Z,100740.00
2022-10-31T14:21:32.282Z,100740.00
2022-10-31T14:23:59.386Z,100734.00
2022-10-31T14:26:30.037Z,100741.00
2022-10-31T14:29:15.542Z,100730.00
2022-10-31T14:32:13.781Z,100736.00
2022-10-31T14:34:51.147Z,100737.00
2022-10-31T14:38:17.383Z,100744.00
2022-10-31T14:41:05.733Z,100740.00
2022-10-31T14:43:56.111Z,100738.00
2022-10-31T14:47:10.928Z,100731.00
2022-10-31T14:50:09.103Z,100737.00
2022-10-31T14:52:39.105Z,100739.00
2022-10-31T14:55:13.306Z,100726.00
2022-10-31T14:57:58.286Z,100730.00
2022-10-31T15:00:28.508Z,100737.00
2022-10-31T15:03:15.999Z,100731.00
2022-10-31T15:05:57.202Z,100732.00
2022-10-31T15:08:39.289Z,100739.00
2022-10-31T15:11:15.826Z,100741.00
2022-10-31T15:13:52.390Z,100739.00
2022-10-31T15:16:43.684Z,100742.00
2022-10-31T15:19:22.719Z,100743.00
2022-10-31T15:21:54.185Z,100753.00
2022-10-31T15:24:23.654Z,100743.00
2022-10-31T15:26:54.174Z,100758.00
2022-10-31T15:29:25.507Z,100749.00
2022-10-31T15:32:01.322Z,100730.00
2022-10-31T15:34:44.452Z,100755.00
2022-10-31T15:37:18.257Z,100746.00
2022-10-31T15:39:47.271Z,100758.00
2022-10-31T15:42:22.945Z,100758.00
2022-10-31T15:45:13.495Z,100753.00
2022-10-31T15:47:48.231Z,100759.00
2022-10-31T15:50:38.525Z,100765.00
2022-10-31T15:53:45.415Z,100758.00
2022-10-31T15:56:23.239Z,100760.00
2022-10-31T15:58:53.867Z,100765.00
2022-10-31T16:01:33.542Z,100762.00
2022-10-31T16:04:07.282Z,100764.00
2022-10-31T16:06:36.902Z,100769.00
2022-10-31T16:09:22.723Z,100770.00
2022-10-31T16:11:50.625Z,100768.00
2022-10-31T16:14:25.684Z,100765.00
2022-10-31T16:16:58.033Z,100766.00
2022-10-31T16:19:37.573Z,100767.00
2022-10-31T16:22:14.568Z,100767.00
2022-10-31T16:25:07.059Z,100765.00
2022-10-31T16:27:38.073Z,100765.00
2022-10-31T16:30:42.814Z,100772.00
2022-10-31T16:33:37.588Z,100776.00
2022-10-31T16:36:35.919Z,100772.00
2022-10-31T16:39:04.657Z,100772.00
2022-10-31T16:41:35.941Z,100764.00
2022-10-31T16:44:06.336Z,100761.00
2022-10-31T16:46:33.533Z,100763.00
2022-10-31T16:49:00.447Z,100767.00
2022-10-31T16:51:27.421Z,100764.00
2022-10-31T16:53:54.503Z,100769.00
2022-10-31T16:56:37.050Z,100766.00
2022-10-31T16:59:15.645Z,100771.00
2022-10-31T17:01:49.822Z,100766.00
2022-10-31T17:04:16.885Z,100773.00
2022-10-31T17:06:43.928Z,100769.00
2022-10-31T17:09:10.974Z,100772.00
2022-10-31T17:11:49.360Z,100772.00
2022-10-31T17:14:18.791Z,100773.00
2022-10-31T17:16:45.751Z,100769.00
2022-10-31T17:19:13.651Z,100775.00
2022-10-31T17:21:41.888Z,100760.00
2022-10-31T17:24:14.713Z,100766.00
2022-10-31T17:26:42.372Z,100774.00
2022-10-31T17:29:09.358Z,100763.00
2022-10-31T17:31:39.135Z,100767.00
2022-10-31T17:34:13.017Z,100767.00
2022-10-31T17:36:40.101Z,100769.00
2022-10-31T17:39:09.575Z,100776.00
2022-10-31T17:41:36.553Z,100768.00
2022-10-31T17:44:03.839Z,100776.00
2022-10-31T17:46:30.807Z,100774.00
2022-10-31T17:49:12.066Z,100777.00
2022-10-31T17:51:41.979Z,100768.00
2022-10-31T17:54:24.840Z,100775.00
2022-10-31T17:56:58.011Z,100773.00
2022-10-31T17:59:32.657Z,100775.00
2022-10-31T18:02:00.568Z,100774.00
2022-10-31T18:04:28.610Z,100773.00
2022-10-31T18:06:55.549Z,100770.00
2022-10-31T18:09:22.539Z,100762.00
2022-10-31T18:11:49.468Z,100776.00
2022-10-31T18:14:16.445Z,100770.00
2022-10-31T18:16:43.391Z,100771.00
2022-10-31T18:19:18.740Z,100769.00
2022-10-31T18:21:46.869Z,100766.00
2022-10-31T18:24:14.071Z,100768.00
2022-10-31T18:26:41.140Z,100771.00
2022-10-31T18:29:08.196Z,100761.00
2022-10-31T18:31:35.107Z,100771.00
2022-10-31T18:34:02.036Z,100767.00
2022-10-31T18:36:29.176Z,100763.00
2022-10-31T18:38:56.141Z,100766.00
2022-10-31T18:41:23.227Z,100760.00
2022-10-31T18:43:50.621Z,100764.00
2022-10-31T18:46:18.646Z,100775.00
2022-10-31T18:48:46.498Z,100785.00
2022-10-31T19:02:26.632Z,100775.00
2022-10-31T19:04:53.951Z,100773.00
2022-10-31T19:07:22.236Z,100775.00
2022-10-31T19:09:49.931Z,100778.00
2022-10-31T19:12:17.142Z,100783.00
2022-10-31T19:14:44.402Z,100769.00
2022-10-31T19:17:12.119Z,100770.00
2022-10-31T19:19:41.971Z,100764.00
2022-10-31T19:22:09.425Z,100768.00
2022-10-31T19:24:38.268Z,100774.00
2022-10-31T19:27:06.235Z,100768.00
2022-10-31T19:29:35.585Z,100772.00
2022-10-31T19:32:03.861Z,100774.00
2022-10-31T19:34:33.495Z,100762.00
2022-10-31T19:37:01.566Z,100771.00
2022-10-31T19:39:29.623Z,100765.00
2022-10-31T19:41:57.925Z,100770.00
2022-10-31T19:44:26.677Z,100774.00
2022-10-31T19:46:54.411Z,100773.00
2022-10-31T19:49:22.046Z,100776.00
2022-10-31T19:51:50.519Z,100768.00
2022-10-31T19:54:18.564Z,100768.00
2022-10-31T19:56:46.994Z,100771.00
2022-10-31T19:59:15.679Z,100775.00
2022-10-31T20:01:43.411Z,100772.00
2022-10-31T20:04:11.195Z,100777.00
2022-10-31T20:06:41.838Z,100773.00
2022-10-31T20:09:15.768Z,100769.00
2022-10-31T20:11:45.891Z,100769.00
2022-10-31T20:14:17.106Z,100772.00
2022-10-31T20:16:46.427Z,100769.00
2022-10-31T20:19:14.704Z,100771.00
2022-10-31T20:21:43.147Z,100762.00
2022-10-31T20:24:13.629Z,100755.00
2022-10-31T20:26:43.175Z,100755.00
2022-10-31T20:29:19.584Z,100748.00
2022-10-31T20:31:48.551Z,100746.00
2022-10-31T20:34:16.310Z,100745.00
2022-10-31T20:36:44.024Z,100749.00
2022-10-31T20:39:11.873Z,100748.00
2022-10-31T20:41:39.865Z,100748.00
2022-10-31T20:44:08.224Z,100747.00
2022-10-31T20:46:37.254Z,100748.00
2022-10-31T20:49:05.469Z,100747.00
2022-10-31T20:51:33.417Z,100750.00
2022-10-31T20:54:02.095Z,100746.00
2022-10-31T20:56:30.398Z,100748.00
2022-10-31T20:58:58.139Z,100750.00
2022-10-31T21:01:30.411Z,100755.00
2022-10-31T21:03:59.286Z,100750.00
2022-10-31T21:06:27.374Z,100751.00
2022-10-31T21:08:56.293Z,100747.00
2022-10-31T21:11:26.902Z,100737.00
2022-10-31T21:13:54.524Z,100737.00
2022-10-31T21:16:33.314Z,100742.00
2022-10-31T21:19:02.135Z,100718.00
2022-10-31T21:21:37.087Z,100738.00
2022-10-31T21:24:08.188Z,100739.00
2022-10-31T21:26:40.613Z,100746.00
2022-10-31T21:29:10.243Z,100740.00
2022-10-31T21:31:39.192Z,100738.00
2022-10-31T21:34:07.334Z,100734.00
2022-10-31T21:36:36.857Z,100741.00
2022-10-31T21:39:07.934Z,100738.00
2022-10-31T21:41:36.351Z,100735.00
2022-10-31T21:44:05.101Z,100736.00
2022-10-31T21:46:35.242Z,100727.00
2022-10-31T21:49:04.632Z,100724.00
2022-10-31T21:51:35.413Z,100736.00
2022-10-31T21:54:21.658Z,100730.00
2022-10-31T21:56:49.542Z,100730.00
2022-10-31T21:59:17.164Z,100733.00
2022-10-31T22:01:44.909Z,100720.00
2022-10-31T22:04:12.919Z,100724.00
2022-10-31T22:06:40.407Z,100724.00
2022-10-31T22:09:11.977Z,100721.00
2022-10-31T22:11:40.981Z,100719.00
2022-10-31T22:14:12.801Z,100722.00
2022-10-31T22:16:41.784Z,100716.00
2022-10-31T22:19:13.627Z,100722.00
2022-10-31T22:21:49.358Z,100717.00
2022-10-31T22:24:19.155Z,100719.00
2022-10-31T22:26:46.697Z,100705.00
2022-10-31T22:29:19.620Z,100708.00
2022-10-31T22:31:53.343Z,100704.00
2022-10-31T22:34:25.641Z,100705.00
2022-10-31T22:36:56.263Z,100704.00
2022-10-31T22:39:24.489Z,100712.00
2022-10-31T22:41:53.079Z,100702.00
2022-10-31T22:44:20.843Z,100708.00
2022-10-31T22:46:49.667Z,100704.00
2022-10-31T22:49:17.621Z,100703.00
2022-10-31T22:51:47.397Z,100703.00
2022-10-31T22:54:18.632Z,100704.00
2022-10-31T22:56:47.745Z,100704.00
2022-10-31T22:59:17.506Z,100706.00
2022-10-31T23:01:46.621Z,100712.00
2022-10-31T23:04:16.874Z,100707.00
2022-10-31T23:06:44.815Z,100709.00
2022-10-31T23:09:17.141Z,100703.00
2022-10-31T23:11:46.767Z,100706.00
2022-10-31T23:14:21.213Z,100704.00
2022-10-31T23:16:52.775Z,100707.00
2022-10-31T23:19:28.964Z,100699.00
2022-10-31T23:22:04.189Z,100704.00
2022-10-31T23:24:45.206Z,100707.00
2022-10-31T23:27:21.607Z,100710.00
2022-10-31T23:29:58.103Z,100693.00
2022-10-31T23:43:55.129Z,100704.00
2022-10-31T23:46:22.139Z,100709.00
2022-10-31T23:48:49.521Z,100705.00
2022-10-31T23:51:17.116Z,100704.00
2022-10-31T23:53:48.100Z,100698.00
2022-10-31T23:56:15.131Z,100704.00
2022-10-31T23:58:42.167Z,100695.00
